createdAt,value
2022-11-13T00:00:54.298Z,18.50
2022-11-13T00:03:21.043Z,19.23
2022-11-13T00:05:47.630Z,22.93
2022-11-13T00:08:14.606Z,23.10
2022-11-13T00:10:41.120Z,18.23
2022-11-13T00:13:07.678Z,21.37
2022-11-13T00:15:34.638Z,17.90
2022-11-13T00:18:03.074Z,18.70
2022-11-13T00:20:29.864Z,22.73
2022-11-13T00:22:56.738Z,20.77
2022-11-13T00:25:23.248Z,22.17
2022-11-13T00:27:49.748Z,17.07
2022-11-13T00:30:19.539Z,20.70
2022-11-13T00:32:46.341Z,22.13
2022-11-13T00:35:13.341Z,18.30
2022-11-13T00:37:39.910Z,18.37
2022-11-13T00:40:06.876Z,16.10
2022-11-13T00:42:33.760Z,16.67
2022-11-13T00:45:00.255Z,15.83
2022-11-13T00:47:26.787Z,14.73
2022-11-13T00:49:53.663Z,17.17
2022-11-13T00:52:20.243Z,14.90
2022-11-13T00:54:47.119Z,22.03
2022-11-13T00:57:14.229Z,14.60
2022-11-13T00:59:40.727Z,16.30
2022-11-13T01:02:07.849Z,16.33
2022-11-13T01:04:34.394Z,16.03
2022-11-13T01:07:00.936Z,13.33
2022-11-13T01:09:27.528Z,17.67
2022-11-13T01:11:54.077Z,14.57
2022-11-13T01:14:20.578Z,14.20
2022-11-13T01:16:47.123Z,14.40
2022-11-13T01:19:14.474Z,12.97
2022-11-13T01:21:41.669Z,12.57
2022-11-13T01:24:08.648Z,14.37
2022-11-13T01:26:35.444Z,13.00
2022-11-13T01:29:02.370Z,14.70
2022-11-13T01:31:30.983Z,17.37
2022-11-13T01:33:58.193Z,12.23
2022-11-13T01:36:27.725Z,14.40
2022-11-13T01:38:55.218Z,13.33
2022-11-13T01:41:26.181Z,13.43
2022-11-13T01:43:54.688Z,16.73
2022-11-13T01:46:35.707Z,13.97
2022-11-13T01:49:05.243Z,15.37
2022-11-13T01:51:41.149Z,14.43
2022-11-13T01:54:12.832Z,17.83
2022-11-13T01:56:40.380Z,14.50
2022-11-13T01:59:15.755Z,13.83
2022-11-13T02:01:42.907Z,13.03
2022-11-13T02:04:09.531Z,16.67
2022-11-13T02:06:57.820Z,13.40
2022-11-13T02:09:29.496Z,16.10
2022-11-13T02:11:56.897Z,14.10
2022-11-13T02:14:26.664Z,12.30
2022-11-13T02:17:00.897Z,14.73
2022-11-13T02:19:39.781Z,13.43
2022-11-13T02:22:21.470Z,12.63
2022-11-13T02:24:54.480Z,13.67
2022-11-13T02:27:29.644Z,16.60
2022-11-13T02:29:56.197Z,12.87
2022-11-13T02:32:22.792Z,12.70
2022-11-13T02:34:49.268Z,13.53
2022-11-13T02:37:15.781Z,12.83
2022-11-13T02:39:42.285Z,12.20
2022-11-13T02:42:08.837Z,9.80
2022-11-13T02:44:35.346Z,10.53
2022-11-13T02:47:01.846Z,11.13
2022-11-13T02:49:28.341Z,8.97
2022-11-13T02:51:54.853Z,11.37
2022-11-13T02:54:21.367Z,9.87
2022-11-13T02:56:47.895Z,11.07
2022-11-13T02:59:14.728Z,11.47
2022-11-13T03:01:41.672Z,10.43
2022-11-13T03:04:08.213Z,8.93
2022-11-13T03:06:34.876Z,10.13
2022-11-13T03:09:01.385Z,10.37
2022-11-13T03:11:27.877Z,8.87
2022-11-13T03:13:54.465Z,11.60
2022-11-13T03:16:21.340Z,9.83
2022-11-13T03:18:47.828Z,11.07
2022-11-13T03:21:16.126Z,9.10
2022-11-13T03:23:45.345Z,8.77
2022-11-13T03:26:15.036Z,10.03
2022-11-13T03:28:41.763Z,9.63
2022-11-13T03:31:08.963Z,10.00
2022-11-13T03:33:35.546Z,8.00
2022-11-13T03:36:02.189Z,8.30
2022-11-13T03:38:29.147Z,8.90
2022-11-13T03:40:56.128Z,8.97
2022-11-13T03:43:23.201Z,10.13
2022-11-13T03:45:49.765Z,8.80
2022-11-13T03:48:16.877Z,8.40
2022-11-13T03:50:45.750Z,9.40
2022-11-13T03:53:13.147Z,8.67
2022-11-13T03:55:39.802Z,8.50
2022-11-13T03:58:06.583Z,10.60
2022-11-13T04:00:33.747Z,10.27
2022-11-13T04:03:00.541Z,10.70
2022-11-13T04:05:27.641Z,8.33
2022-11-13T04:07:54.249Z,9.57
2022-11-13T04:10:21.254Z,14.20
2022-11-13T04:12:47.771Z,10.67
2022-11-13T04:15:14.420Z,11.87
2022-11-13T04:17:40.992Z,10.73
2022-11-13T04:20:08.710Z,14.10
2022-11-13T04:22:35.366Z,10.80
2022-11-13T04:25:02.221Z,15.00
2022-11-13T04:27:28.800Z,12.37
2022-11-13T04:29:55.324Z,12.00
2022-11-13T04:32:21.922Z,12.00
2022-11-13T04:34:48.422Z,12.13
2022-11-13T04:37:15.140Z,10.50
2022-11-13T04:39:41.974Z,9.47
2022-11-13T04:42:29.805Z,13.83
2022-11-13T04:44:56.666Z,11.40
2022-11-13T04:47:23.339Z,9.53
2022-11-13T04:49:49.843Z,10.60
2022-11-13T04:52:16.443Z,10.63
2022-11-13T04:54:42.968Z,10.13
2022-11-13T04:57:09.567Z,11.50
2022-11-13T04:59:36.083Z,9.43
2022-11-13T05:02:03.084Z,7.57
2022-11-13T05:04:29.583Z,12.83
2022-11-13T05:06:56.146Z,9.73
2022-11-13T05:09:22.682Z,9.97
2022-11-13T05:11:49.162Z,7.90
2022-11-13T05:14:15.727Z,7.43
2022-11-13T05:16:42.249Z,7.40
2022-11-13T05:19:08.758Z,8.77
2022-11-13T05:21:36.422Z,8.33
2022-11-13T05:24:03.488Z,8.50
2022-11-13T05:26:30.407Z,8.00
2022-11-13T05:28:58.962Z,7.03
2022-11-13T05:31:26.179Z,8.07
2022-11-13T05:33:53.904Z,10.60
2022-11-13T05:36:21.052Z,7.73
2022-11-13T05:38:47.625Z,9.50
2022-11-13T05:41:17.013Z,9.37
2022-11-13T05:43:43.676Z,7.87
2022-11-13T05:46:24.701Z,8.83
2022-11-13T05:48:56.886Z,8.80
2022-11-13T05:51:25.628Z,11.27
2022-11-13T05:53:53.044Z,9.07
2022-11-13T05:56:25.003Z,8.40
2022-11-13T05:58:52.996Z,8.10
2022-11-13T06:01:23.647Z,7.70
2022-11-13T06:03:50.581Z,7.40
2022-11-13T06:06:20.508Z,7.47
2022-11-13T06:08:48.850Z,11.40
2022-11-13T06:11:18.967Z,9.40
2022-11-13T06:13:46.691Z,9.23
2022-11-13T06:16:16.529Z,9.03
2022-11-13T06:18:45.768Z,9.17
2022-11-13T06:21:15.259Z,11.53
2022-11-13T06:23:42.008Z,7.63
2022-11-13T06:26:12.205Z,10.83
2022-11-13T06:28:39.431Z,9.23
2022-11-13T06:31:09.018Z,10.00
2022-11-13T06:33:36.553Z,8.10
2022-11-13T06:36:05.268Z,8.50
2022-11-13T06:38:33.176Z,9.63
2022-11-13T06:41:00.764Z,7.53
2022-11-13T06:43:28.281Z,10.80
2022-11-13T06:45:56.033Z,10.53
2022-11-13T06:48:22.848Z,8.17
2022-11-13T06:50:49.959Z,7.90
2022-11-13T06:53:17.117Z,8.43
2022-11-13T06:55:48.791Z,9.33
2022-11-13T06:58:15.976Z,7.10
2022-11-13T07:00:43.848Z,6.50
2022-11-13T07:03:20.291Z,8.80
2022-11-13T07:05:47.511Z,9.03
2022-11-13T07:08:15.259Z,6.70
2022-11-13T07:10:42.498Z,7.10
2022-11-13T07:13:09.930Z,8.33
2022-11-13T07:15:37.792Z,6.47
2022-11-13T07:18:05.979Z,13.33
2022-11-13T07:20:33.409Z,7.03
2022-11-13T07:23:01.825Z,8.30
2022-11-13T07:25:29.070Z,7.53
2022-11-13T07:27:55.605Z,8.07
2022-11-13T07:30:22.473Z,7.83
2022-11-13T07:32:49.033Z,7.80
2022-11-13T07:35:16.888Z,8.70
2022-11-13T07:37:43.969Z,10.00
2022-11-13T07:40:11.806Z,6.77
2022-11-13T07:42:38.908Z,6.30
2022-11-13T07:45:06.069Z,5.47
2022-11-13T07:47:32.788Z,6.03
2022-11-13T07:50:05.513Z,6.77
2022-11-13T07:52:36.158Z,6.60
2022-11-13T07:55:02.708Z,6.47
2022-11-13T07:57:29.224Z,9.53
2022-11-13T07:59:55.746Z,5.50
2022-11-13T08:02:26.240Z,6.40
2022-11-13T08:04:52.999Z,9.07
2022-11-13T08:07:19.542Z,10.93
2022-11-13T08:09:46.107Z,8.07
2022-11-13T08:12:12.835Z,7.00
2022-11-13T08:14:39.761Z,7.13
2022-11-13T08:17:06.215Z,8.37
2022-11-13T08:19:32.924Z,6.50
2022-11-13T08:21:59.373Z,9.50
2022-11-13T08:24:25.831Z,10.70
2022-11-13T08:26:52.624Z,6.73
2022-11-13T08:29:21.338Z,6.60
2022-11-13T08:31:47.775Z,6.93
2022-11-13T08:34:14.933Z,9.83
2022-11-13T08:36:41.402Z,7.13
2022-11-13T08:39:09.777Z,9.07
2022-11-13T08:41:36.219Z,8.47
2022-11-13T08:44:02.727Z,8.60
2022-11-13T08:46:29.638Z,7.63
2022-11-13T08:48:56.100Z,9.10
2022-11-13T08:51:22.581Z,7.03
2022-11-13T08:53:49.130Z,8.80
2022-11-13T08:56:15.632Z,8.03
2022-11-13T08:58:42.142Z,5.63
2022-11-13T09:01:08.897Z,5.83
2022-11-13T09:03:36.962Z,5.10
2022-11-13T09:06:07.699Z,7.23
2022-11-13T09:08:34.602Z,7.27
2022-11-13T09:11:05.281Z,6.23
2022-11-13T09:13:37.538Z,5.93
2022-11-13T09:16:07.748Z,5.33
2022-11-13T09:18:34.415Z,6.90
2022-11-13T09:21:01.984Z,5.83
2022-11-13T09:23:29.118Z,6.67
2022-11-13T09:25:56.186Z,4.97
2022-11-13T09:28:22.896Z,6.63
2022-11-13T09:30:50.042Z,4.90
2022-11-13T09:33:16.586Z,4.40
2022-11-13T09:35:43.529Z,5.40
2022-11-13T09:38:12.500Z,4.10
2022-11-13T09:41:13.321Z,5.83
2022-11-13T09:43:43.618Z,6.27
2022-11-13T09:46:25.549Z,4.07
2022-11-13T09:49:04.949Z,6.20
2022-11-13T09:51:36.489Z,3.87
2022-11-13T09:54:11.480Z,5.57
2022-11-13T09:56:43.322Z,4.30
2022-11-13T09:59:16.851Z,6.23
2022-11-13T10:02:08.224Z,5.27
2022-11-13T10:05:05.717Z,4.27
2022-11-13T10:07:49.227Z,4.23
2022-11-13T10:10:54.912Z,4.37
2022-11-13T10:13:28.985Z,3.37
2022-11-13T10:16:23.207Z,5.63
2022-11-13T10:18:51.226Z,7.00
2022-11-13T10:21:31.024Z,6.70
2022-11-13T10:23:57.775Z,4.73
2022-11-13T10:26:28.048Z,4.47
2022-11-13T10:29:02.532Z,4.87
2022-11-13T10:31:29.115Z,4.53
2022-11-13T10:33:57.521Z,5.47
2022-11-13T10:36:41.871Z,5.97
2022-11-13T10:39:09.501Z,5.17
2022-11-13T10:41:51.472Z,6.90
2022-11-13T10:44:22.688Z,5.00
2022-11-13T10:46:49.500Z,5.30
2022-11-13T10:49:21.327Z,6.73
2022-11-13T10:51:56.604Z,5.80
2022-11-13T10:54:31.680Z,5.60
2022-11-13T10:57:03.647Z,5.53
2022-11-13T10:59:39.815Z,6.77
2022-11-13T11:02:15.444Z,7.57
2022-11-13T11:04:41.947Z,7.53
2022-11-13T11:07:20.903Z,9.40
2022-11-13T11:09:50.785Z,7.23
2022-11-13T11:12:23.089Z,7.07
2022-11-13T11:15:01.468Z,8.13
2022-11-13T11:17:44.160Z,10.47
2022-11-13T11:20:22.085Z,8.07
2022-11-13T11:22:58.899Z,9.40
2022-11-13T11:25:31.231Z,8.07
2022-11-13T11:28:17.425Z,9.70
2022-11-13T11:30:51.418Z,8.00
2022-11-13T11:33:37.375Z,6.23
2022-11-13T11:36:36.276Z,6.73
2022-11-13T11:39:40.149Z,8.53
2022-11-13T11:42:15.773Z,6.67
2022-11-13T11:45:02.705Z,7.67
2022-11-13T11:47:30.465Z,10.50
2022-11-13T11:49:56.993Z,8.87
2022-11-13T11:52:40.065Z,11.87
2022-11-13T11:55:40.422Z,8.07
2022-11-13T11:58:16.089Z,7.53
2022-11-13T12:01:09.904Z,7.67
2022-11-13T12:03:58.465Z,7.27
2022-11-13T12:07:00.465Z,8.70
2022-11-13T12:09:33.582Z,7.73
2022-11-13T12:12:15.710Z,7.00
2022-11-13T12:14:48.200Z,9.07
2022-11-13T12:17:39.625Z,7.90
2022-11-13T12:20:31.071Z,8.73
2022-11-13T12:23:20.235Z,8.50
2022-11-13T12:25:54.571Z,7.33
2022-11-13T12:28:30.033Z,6.60
2022-11-13T12:31:22.996Z,7.67
2022-11-13T12:34:01.973Z,7.40
2022-11-13T12:36:29.557Z,9.33
2022-11-13T12:39:20.226Z,6.53
2022-11-13T12:41:54.867Z,5.97
2022-11-13T12:44:27.621Z,8.43
2022-11-13T12:46:56.058Z,8.63
2022-11-13T12:49:22.515Z,6.20
2022-11-13T12:52:17.333Z,7.77
2022-11-13T12:54:43.913Z,5.37
2022-11-13T12:57:13.128Z,5.10
2022-11-13T12:59:43.282Z,7.60
2022-11-13T13:02:09.703Z,8.53
2022-11-13T13:04:48.395Z,8.23
2022-11-13T13:07:24.941Z,7.53
2022-11-13T13:10:22.325Z,9.60
2022-11-13T13:13:08.579Z,8.10
2022-11-13T13:15:49.041Z,8.70
2022-11-13T13:18:18.294Z,13.13
2022-11-13T13:20:56.899Z,8.40
2022-11-13T13:23:32.689Z,9.87
2022-11-13T13:26:15.245Z,10.67
2022-11-13T13:28:44.285Z,12.43
2022-11-13T13:31:22.921Z,14.47
2022-11-13T13:34:14.961Z,13.07
2022-11-13T13:36:53.575Z,14.73
2022-11-13T13:39:28.910Z,14.23
2022-11-13T13:42:06.967Z,13.13
2022-11-13T13:44:39.171Z,6.63
2022-11-13T13:47:14.348Z,12.97
2022-11-13T13:49:40.861Z,11.80
2022-11-13T13:52:07.406Z,12.57
2022-11-13T13:54:35.701Z,11.50
2022-11-13T13:57:02.257Z,7.17
2022-11-13T13:59:37.177Z,7.97
2022-11-13T14:02:15.358Z,6.23
2022-11-13T14:04:47.500Z,7.47
2022-11-13T14:07:26.683Z,6.47
2022-11-13T14:10:16.992Z,7.00
2022-11-13T14:12:45.297Z,7.97
2022-11-13T14:15:27.313Z,6.13
2022-11-13T14:18:08.903Z,6.27
2022-11-13T14:20:47.028Z,7.10
2022-11-13T14:23:38.429Z,8.33
2022-11-13T14:26:05.908Z,10.30
2022-11-13T14:28:49.709Z,7.03
2022-11-13T14:31:19.516Z,6.30
2022-11-13T14:33:49.557Z,7.50
2022-11-13T14:36:25.003Z,7.37
2022-11-13T14:38:52.600Z,6.67
2022-11-13T14:41:42.158Z,6.57
2022-11-13T14:44:11.780Z,5.83
2022-11-13T14:46:44.574Z,5.03
2022-11-13T14:49:35.376Z,5.00
2022-11-13T14:52:02.290Z,5.10
2022-11-13T14:54:59.984Z,5.77
2022-11-13T14:57:19.967Z,4.10
2022-11-13T14:59:46.538Z,5.80
2022-11-13T15:02:13.605Z,7.67
2022-11-13T15:04:41.015Z,5.50
2022-11-13T15:07:32.288Z,5.50
2022-11-13T15:09:59.507Z,6.07
2022-11-13T15:12:26.489Z,4.50
2022-11-13T15:14:53.032Z,6.07
2022-11-13T15:17:22.192Z,5.80
2022-11-13T15:19:52.840Z,6.60
2022-11-13T15:22:27.970Z,6.13
2022-11-13T15:24:55.214Z,5.90
2022-11-13T15:27:21.705Z,5.30
2022-11-13T15:29:48.156Z,6.17
2022-11-13T15:32:16.041Z,6.73
2022-11-13T15:34:42.865Z,4.03
2022-11-13T15:37:14.924Z,5.40
2022-11-13T15:39:41.457Z,6.53
2022-11-13T15:42:13.920Z,5.47
2022-11-13T15:44:40.870Z,6.47
2022-11-13T15:47:37.284Z,5.40
2022-11-13T15:50:14.776Z,5.00
2022-11-13T15:52:45.616Z,6.10
2022-11-13T15:55:26.722Z,6.20
2022-11-13T15:57:53.938Z,5.87
2022-11-13T16:00:25.322Z,4.87
2022-11-13T16:02:55.476Z,8.97
2022-11-13T16:05:56.199Z,7.17
2022-11-13T16:08:36.220Z,6.83
2022-11-13T16:11:02.730Z,6.20
2022-11-13T16:13:29.480Z,6.47
2022-11-13T16:15:56.587Z,7.80
2022-11-13T16:18:25.901Z,9.23
2022-11-13T16:20:52.375Z,7.43
2022-11-13T16:23:19.169Z,8.70
2022-11-13T16:25:47.553Z,10.70
2022-11-13T16:28:16.800Z,10.07
2022-11-13T16:30:44.373Z,5.70
2022-11-13T16:33:11.215Z,7.40
2022-11-13T16:35:39.331Z,8.47
2022-11-13T16:38:13.219Z,6.47
2022-11-13T16:40:42.921Z,6.50
2022-11-13T16:43:10.308Z,6.80
2022-11-13T16:45:38.393Z,5.77
2022-11-13T16:48:06.541Z,6.77
2022-11-13T16:50:34.777Z,7.57
2022-11-13T16:53:01.565Z,5.73
2022-11-13T16:55:28.198Z,7.23
2022-11-13T16:57:54.734Z,6.87
2022-11-13T17:00:21.477Z,7.30
2022-11-13T17:02:53.082Z,9.60
2022-11-13T17:05:21.168Z,7.27
2022-11-13T17:07:50.797Z,7.97
2022-11-13T17:10:35.803Z,6.93
2022-11-13T17:13:02.345Z,9.27
2022-11-13T17:15:28.882Z,7.50
2022-11-13T17:17:58.005Z,7.20
2022-11-13T17:20:24.590Z,7.17
2022-11-13T17:22:51.062Z,5.93
2022-11-13T17:25:18.697Z,8.60
2022-11-13T17:27:45.165Z,10.47
2022-11-13T17:30:12.938Z,8.97
2022-11-13T17:32:39.481Z,10.93
2022-11-13T17:35:06.419Z,8.37
2022-11-13T17:37:32.949Z,9.93
2022-11-13T17:39:59.398Z,7.57
2022-11-13T17:42:28.007Z,7.07
2022-11-13T17:44:54.455Z,7.77
2022-11-13T17:47:21.063Z,6.93
2022-11-13T17:49:47.585Z,6.17
2022-11-13T17:52:14.062Z,6.67
2022-11-13T17:54:40.559Z,6.93
2022-11-13T17:57:10.219Z,11.73
2022-11-13T17:59:36.890Z,8.43
2022-11-13T18:02:03.524Z,8.87
2022-11-13T18:04:30.001Z,8.20
2022-11-13T18:06:56.583Z,8.03
2022-11-13T18:09:23.121Z,6.67
2022-11-13T18:11:49.595Z,9.77
2022-11-13T18:14:16.343Z,8.33
2022-11-13T18:16:42.787Z,9.50
2022-11-13T18:19:09.481Z,7.07
2022-11-13T18:21:37.270Z,6.17
2022-11-13T18:24:11.865Z,7.93
2022-11-13T18:26:38.391Z,8.10
2022-11-13T18:29:05.360Z,7.50
2022-11-13T18:31:31.995Z,8.87
2022-11-13T18:33:59.803Z,8.37
2022-11-13T18:36:26.430Z,8.17
2022-11-13T18:38:53.131Z,9.40
2022-11-13T18:41:23.650Z,7.57
2022-11-13T18:43:51.807Z,7.83
2022-11-13T18:46:21.468Z,7.63
2022-11-13T18:48:49.078Z,7.73
2022-11-13T18:51:21.661Z,9.07
2022-11-13T18:53:49.734Z,8.20
2022-11-13T18:56:24.902Z,6.70
2022-11-13T18:58:53.325Z,7.43
2022-11-13T19:01:22.824Z,6.97
2022-11-13T19:04:16.182Z,8.40
2022-11-13T19:06:37.969Z,7.43
2022-11-13T19:09:07.361Z,7.83
2022-11-13T19:11:33.993Z,9.30
2022-11-13T19:14:00.823Z,8.87
2022-11-13T19:16:33.152Z,8.33
2022-11-13T19:19:03.320Z,8.00
2022-11-13T19:21:32.853Z,10.23
2022-11-13T19:24:01.315Z,8.80
2022-11-13T19:26:28.593Z,10.87
2022-11-13T19:28:55.584Z,9.60
2022-11-13T19:31:25.127Z,9.77
2022-11-13T19:34:10.466Z,10.07
2022-11-13T19:36:37.168Z,7.90
2022-11-13T19:39:04.433Z,7.87
2022-11-13T19:41:30.984Z,8.37
2022-11-13T19:43:59.768Z,8.90
2022-11-13T19:46:26.779Z,9.50
2022-11-13T19:48:53.401Z,6.90
2022-11-13T19:51:22.849Z,10.00
2022-11-13T19:53:54.000Z,7.70
2022-11-13T19:56:21.836Z,12.57
2022-11-13T19:58:49.950Z,8.30
2022-11-13T20:01:27.581Z,8.73
2022-11-13T20:04:04.823Z,9.57
2022-11-13T20:06:33.293Z,9.43
2022-11-13T20:09:00.654Z,8.50
2022-11-13T20:11:27.474Z,8.73
2022-11-13T20:13:55.740Z,8.70
2022-11-13T20:16:23.728Z,8.20
2022-11-13T20:18:51.212Z,8.43
2022-11-13T20:21:30.394Z,8.93
2022-11-13T20:23:58.754Z,12.57
2022-11-13T20:26:25.624Z,9.73
2022-11-13T20:28:52.222Z,8.63
2022-11-13T20:31:22.295Z,10.90
2022-11-13T20:33:54.598Z,10.87
2022-11-13T20:36:22.359Z,9.20
2022-11-13T20:38:54.088Z,11.63
2022-11-13T20:41:21.670Z,9.97
2022-11-13T20:43:48.949Z,11.03
2022-11-13T20:46:17.236Z,9.23
2022-11-13T20:48:45.550Z,9.07
2022-11-13T20:51:23.073Z,11.37
2022-11-13T20:53:50.285Z,11.50
2022-11-13T20:56:18.514Z,10.17
2022-11-13T20:58:45.300Z,10.33
2022-11-13T21:01:17.581Z,10.90
2022-11-13T21:03:45.726Z,11.97
2022-11-13T21:06:15.729Z,11.03
2022-11-13T21:08:43.167Z,10.20
2022-11-13T21:11:14.311Z,11.30
2022-11-13T21:13:40.768Z,11.60
2022-11-13T21:16:08.887Z,8.67
2022-11-13T21:18:35.805Z,8.97
2022-11-13T21:21:10.918Z,10.83
2022-11-13T21:23:37.783Z,8.80
2022-11-13T21:26:06.832Z,8.90
2022-11-13T21:28:34.372Z,12.77
2022-11-13T21:31:06.189Z,9.60
2022-11-13T21:33:37.257Z,9.57
2022-11-13T21:36:10.872Z,9.33
2022-11-13T21:38:37.554Z,9.53
2022-11-13T21:41:21.862Z,10.67
2022-11-13T21:43:53.408Z,9.70
2022-11-13T21:46:20.993Z,8.20
2022-11-13T21:48:48.884Z,10.97
2022-11-13T21:51:15.410Z,9.23
2022-11-13T21:53:42.991Z,10.37
2022-11-13T21:56:15.249Z,9.30
2022-11-13T21:58:42.561Z,8.90
2022-11-13T22:01:10.738Z,8.47
2022-11-13T22:03:37.625Z,9.70
2022-11-13T22:06:41.729Z,10.00
2022-11-13T22:09:14.718Z,9.93
2022-11-13T22:11:41.990Z,9.40
2022-11-13T22:14:09.007Z,8.83
2022-11-13T22:16:38.271Z,11.37
2022-11-13T22:19:06.965Z,8.77
2022-11-13T22:21:35.123Z,8.87
2022-11-13T22:24:02.094Z,9.03
2022-11-13T22:26:29.606Z,12.10
2022-11-13T22:29:00.466Z,8.43
2022-11-13T22:31:29.181Z,8.90
2022-11-13T22:33:56.285Z,9.73
2022-11-13T22:36:25.200Z,9.50
2022-11-13T22:38:52.105Z,9.27
2022-11-13T22:41:23.325Z,11.57
2022-11-13T22:43:53.580Z,11.83
2022-11-13T22:46:22.668Z,14.03
2022-11-13T22:48:50.656Z,11.43
2022-11-13T22:51:22.947Z,9.50
2022-11-13T22:53:52.017Z,10.53
2022-11-13T22:56:19.932Z,14.10
2022-11-13T22:58:46.959Z,9.00
2022-11-13T23:01:25.436Z,10.57
2022-11-13T23:03:53.421Z,11.00
2022-11-13T23:06:24.611Z,9.67
2022-11-13T23:08:51.600Z,10.30
2022-11-13T23:11:23.334Z,11.13
2022-11-13T23:13:52.631Z,8.53
2022-11-13T23:16:20.384Z,10.43
2022-11-13T23:18:47.291Z,10.73
2022-11-13T23:21:14.973Z,10.33
2022-11-13T23:23:42.444Z,8.73
2022-11-13T23:26:10.553Z,11.70
2022-11-13T23:28:38.381Z,10.13
2022-11-13T23:31:05.988Z,10.73
2022-11-13T23:33:32.886Z,10.33
2022-11-13T23:35:59.915Z,8.70
2022-11-13T23:38:26.471Z,10.60
2022-11-13T23:40:58.041Z,12.43
2022-11-13T23:43:41.653Z,11.33
2022-11-13T23:46:12.507Z,9.30
2022-11-13T23:48:40.239Z,10.80
2022-11-13T23:51:07.994Z,9.27
2022-11-13T23:53:34.533Z,11.23
2022-11-13T23:56:01.157Z,10.43
2022-11-13T23:58:28.111Z,10.03
